Time;durP1;ratioP1;P1;durP2;ratioP2;P2;SDS_P1;SDS_P2;PMS_P1;PMS_P2;Temp;Humidity;BMP_temperature;BMP_pressure;BME280_temperature;BME280_humidity;BME280_pressure;Samples;Min_cycle;Max_cycle;Signal;HPM_P1;HPM_P2
2023/01/26 15:14:58;;;;;;;16.67;7.97;;;3.90;99.90;;;;;;7360339;19;20504;-75
2023/01/26 15:17:29;;;;;;;16.10;7.87;;;3.80;99.90;;;;;;5603918;19;15037951;-74
2023/01/26 15:20:33;;;;;;;14.23;7.80;;;3.90;99.90;;;;;;7423066;19;20471;-75
2023/01/26 15:22:59;;;;;;;15.33;8.47;;;4.00;99.90;;;;;;7425352;19;20165;-74
2023/01/26 15:25:27;;;;;;;15.80;6.97;;;4.10;99.90;;;;;;7422310;19;20174;-74
2023/01/26 15:27:54;;;;;;;14.43;7.50;;;3.90;99.90;;;;;;7426186;19;20548;-74
2023/01/26 15:30:30;;;;;;;15.43;7.40;;;3.80;99.90;;;;;;7423457;19;20138;-75
2023/01/26 15:32:56;;;;;;;15.47;7.73;;;3.70;99.90;;;;;;7423258;19;20141;-75
2023/01/26 15:35:32;;;;;;;14.47;7.57;;;3.80;99.90;;;;;;7422042;19;20557;-75
2023/01/26 15:38:09;;;;;;;13.07;7.07;;;3.70;99.90;;;;;;7422176;19;20149;-75
2023/01/26 15:40:35;;;;;;;14.10;7.10;;;3.70;99.90;;;;;;7423476;19;20156;-76
2023/01/26 15:43:11;;;;;;;16.27;8.40;;;3.80;99.90;;;;;;7423451;19;20153;-75
2023/01/26 15:45:42;;;;;;;15.13;7.57;;;3.90;99.90;;;;;;7421809;19;20134;-77
2023/01/26 15:48:08;;;;;;;14.43;7.93;;;4.00;99.90;;;;;;7417930;19;20610;-77
2023/01/26 15:50:34;;;;;;;15.13;8.20;;;4.00;99.90;;;;;;7417290;19;20142;-75
2023/01/26 15:52:59;;;;;;;12.40;7.67;;;3.90;99.90;;;;;;7420218;19;20152;-78
2023/01/26 15:55:30;;;;;;;13.63;7.30;;;3.90;99.90;;;;;;7419390;19;20150;-76
2023/01/26 15:57:56;;;;;;;16.70;8.47;;;4.00;99.90;;;;;;7422933;19;20146;-78
2023/01/26 16:00:22;;;;;;;15.60;8.63;;;4.00;99.90;;;;;;7421825;19;20170;-75
2023/01/26 16:02:49;;;;;;;15.77;9.10;;;3.90;99.90;;;;;;7422251;19;20825;-78
2023/01/26 16:05:20;;;;;;;15.27;8.30;;;3.90;99.90;;;;;;7421055;19;20149;-75
2023/01/26 16:07:47;;;;;;;14.20;7.50;;;3.90;99.90;;;;;;7420118;19;20146;-75
2023/01/26 16:10:13;;;;;;;14.17;7.83;;;4.00;99.90;;;;;;7421492;19;20169;-75
2023/01/26 16:12:39;;;;;;;15.40;8.17;;;3.90;99.90;;;;;;7423214;19;20183;-75
2023/01/26 16:15:33;;;;;;;13.23;7.33;;;3.70;99.90;;;;;;7420678;19;20593;-74
2023/01/26 16:17:59;;;;;;;14.30;8.60;;;3.70;99.90;;;;;;7422057;19;20154;-75
2023/01/26 16:20:24;;;;;;;15.13;7.63;;;3.70;99.90;;;;;;7414744;19;20188;-74
2023/01/26 16:22:50;;;;;;;18.23;8.17;;;3.70;99.90;;;;;;7418269;19;20568;-75
2023/01/26 16:25:27;;;;;;;16.87;7.43;;;3.60;99.90;;;;;;7420038;19;20246;-76
2023/01/26 16:27:55;;;;;;;13.77;8.07;;;3.70;99.90;;;;;;7419534;19;20153;-75
2023/01/26 16:30:21;;;;;;;15.70;8.53;;;3.70;99.90;;;;;;7408843;19;20138;-76
2023/01/26 16:32:47;;;;;;;14.97;7.83;;;3.70;99.90;;;;;;7390344;19;20621;-74
2023/01/26 16:35:19;;;;;;;13.37;7.53;;;3.40;99.90;;;;;;7392123;19;20666;-76
2023/01/26 16:37:45;;;;;;;12.93;7.20;;;3.60;99.90;;;;;;7394981;19;20642;-75
2023/01/26 16:40:13;;;;;;;13.50;7.40;;;3.70;99.90;;;;;;7392715;19;20135;-78
2023/01/26 16:42:43;;;;;;;14.27;6.67;;;3.80;99.90;;;;;;7401841;19;20161;-76
2023/01/26 16:45:18;;;;;;;12.93;6.53;;;3.80;99.90;;;;;;7394308;19;20165;-74
2023/01/26 16:47:47;;;;;;;12.17;6.77;;;3.90;99.90;;;;;;7401942;19;20473;-76
2023/01/26 16:50:13;;;;;;;11.97;7.00;;;3.90;99.90;;;;;;7395570;19;20147;-76
2023/01/26 16:52:39;;;;;;;16.07;7.30;;;3.90;99.90;;;;;;7394588;19;20137;-77
2023/01/26 16:55:11;;;;;;;15.07;7.80;;;3.90;99.90;;;;;;7395755;19;20147;-76
2023/01/26 16:57:41;;;;;;;13.00;6.87;;;3.90;99.90;;;;;;7398345;19;20139;-77
2023/01/26 17:00:12;;;;;;;15.17;7.20;;;3.80;99.90;;;;;;7394566;19;20647;-81
2023/01/26 17:02:38;;;;;;;12.97;7.40;;;3.80;99.90;;;;;;7400758;19;20146;-77
2023/01/26 17:05:04;;;;;;;15.63;7.93;;;3.80;99.90;;;;;;7397709;19;20140;-77
2023/01/26 17:07:30;;;;;;;19.27;7.93;;;3.80;99.90;;;;;;7398004;19;20607;-77
2023/01/26 17:09:56;;;;;;;13.73;8.33;;;3.80;99.90;;;;;;7397472;19;20142;-77
2023/01/26 17:12:21;;;;;;;13.77;8.07;;;3.70;99.90;;;;;;7396456;19;20137;-78
2023/01/26 17:14:47;;;;;;;12.70;8.20;;;3.70;99.90;;;;;;7393859;19;20206;-78
2023/01/26 17:17:13;;;;;;;15.47;7.93;;;3.70;99.90;;;;;;7394328;19;20135;-77
2023/01/26 17:19:38;;;;;;;13.13;8.00;;;3.60;99.90;;;;;;7391604;19;20165;-78
2023/01/26 17:22:05;;;;;;;13.77;8.30;;;3.60;99.90;;;;;;7393528;19;20171;-77
2023/01/26 17:24:30;;;;;;;13.00;7.13;;;3.50;99.90;;;;;;7396700;19;20147;-76
2023/01/26 17:26:56;;;;;;;14.20;8.47;;;3.50;99.90;;;;;;7395329;19;20501;-77
2023/01/26 17:29:22;;;;;;;12.57;7.97;;;3.50;99.90;;;;;;7397334;19;20219;-77
2023/01/26 17:31:48;;;;;;;11.13;6.67;;;3.40;99.90;;;;;;7400513;19;20650;-78
2023/01/26 17:34:13;;;;;;;12.47;7.77;;;3.40;99.90;;;;;;7393158;19;20599;-78
2023/01/26 17:36:39;;;;;;;15.67;7.30;;;3.40;99.90;;;;;;7392740;19;20158;-77
2023/01/26 17:39:05;;;;;;;14.90;8.67;;;3.40;99.90;;;;;;7393752;19;20154;-77
2023/01/26 17:41:31;;;;;;;11.53;6.83;;;3.50;99.90;;;;;;7392206;19;20448;-77
2023/01/26 17:43:57;;;;;;;11.87;6.80;;;3.50;99.90;;;;;;7390026;19;20180;-76
2023/01/26 17:46:22;;;;;;;11.97;7.10;;;3.40;99.90;;;;;;7391634;19;20162;-79
2023/01/26 17:48:49;;;;;;;13.20;7.20;;;3.40;99.90;;;;;;7395153;19;20130;-77
2023/01/26 17:51:18;;;;;;;10.43;6.40;;;3.30;99.90;;;;;;7391999;19;20135;-76
2023/01/26 17:53:48;;;;;;;12.47;7.53;;;3.20;99.90;;;;;;7393213;19;20142;-75
2023/01/26 17:56:16;;;;;;;13.20;6.77;;;3.20;99.90;;;;;;7393566;19;20213;-76
2023/01/26 17:58:41;;;;;;;12.40;7.47;;;3.30;99.90;;;;;;7390325;19;20319;-78
2023/01/26 18:01:08;;;;;;;10.40;6.47;;;3.30;99.90;;;;;;7395615;19;21051;-77
2023/01/26 18:03:38;;;;;;;11.47;7.40;;;3.30;99.90;;;;;;7400025;19;20146;-76
2023/01/26 18:06:05;;;;;;;11.23;7.07;;;3.40;99.90;;;;;;7395552;19;20254;-77
2023/01/26 18:08:31;;;;;;;11.97;7.27;;;3.40;99.90;;;;;;7398510;19;20131;-78
2023/01/26 18:10:58;;;;;;;13.63;7.77;;;3.40;99.90;;;;;;7395560;19;20145;-77
2023/01/26 18:13:24;;;;;;;11.70;6.97;;;3.30;99.90;;;;;;7396563;19;20601;-76
2023/01/26 18:15:51;;;;;;;11.13;6.97;;;3.40;99.90;;;;;;7392142;19;20139;-76
2023/01/26 18:18:17;;;;;;;10.53;6.67;;;3.30;99.90;;;;;;7395706;19;20209;-78
2023/01/26 18:20:42;;;;;;;15.23;7.30;;;3.20;99.90;;;;;;7396752;19;20165;-77
2023/01/26 18:23:08;;;;;;;12.30;7.07;;;3.20;99.90;;;;;;7390902;19;20549;-76
2023/01/26 18:25:35;;;;;;;10.73;7.50;;;3.10;99.90;;;;;;7393324;19;20161;-77
2023/01/26 18:28:01;;;;;;;14.10;7.87;;;3.10;99.90;;;;;;7393132;19;20130;-76
2023/01/26 18:30:27;;;;;;;13.07;7.77;;;3.10;99.90;;;;;;7393738;19;20461;-76
2023/01/26 18:32:53;;;;;;;12.03;7.37;;;3.20;99.90;;;;;;7401267;19;20133;-76
2023/01/26 18:35:19;;;;;;;11.30;7.73;;;3.30;99.90;;;;;;7393814;19;20143;-78
2023/01/26 18:37:44;;;;;;;10.20;7.67;;;3.20;99.90;;;;;;7393154;19;20134;-77
2023/01/26 18:40:11;;;;;;;11.13;7.93;;;3.30;99.90;;;;;;7392781;19;20646;-77
2023/01/26 18:42:39;;;;;;;13.90;7.63;;;3.20;99.90;;;;;;7392382;19;20591;-77
2023/01/26 18:45:05;;;;;;;13.30;7.70;;;3.30;99.90;;;;;;7394174;19;20135;-78
2023/01/26 18:47:34;;;;;;;12.57;7.53;;;3.20;99.90;;;;;;7394015;19;20146;-77
2023/01/26 18:50:00;;;;;;;13.73;8.20;;;3.10;99.90;;;;;;7394100;19;20161;-77
2023/01/26 18:52:25;;;;;;;13.43;7.83;;;3.10;99.90;;;;;;7388768;19;20184;-76
2023/01/26 18:54:51;;;;;;;13.23;8.87;;;3.00;99.90;;;;;;7391184;19;20203;-77
2023/01/26 18:57:17;;;;;;;14.80;8.53;;;3.00;99.90;;;;;;7390962;19;20154;-79
2023/01/26 18:59:47;;;;;;;14.97;9.23;;;3.10;99.90;;;;;;7389177;19;20134;-76
2023/01/26 19:02:13;;;;;;;12.07;7.97;;;3.00;99.90;;;;;;7394148;19;20157;-76
2023/01/26 19:04:40;;;;;;;15.93;8.53;;;3.00;99.90;;;;;;7395253;19;20149;-76
2023/01/26 19:07:10;;;;;;;11.77;8.77;;;3.10;99.90;;;;;;7391111;19;20142;-76
2023/01/26 19:09:37;;;;;;;14.73;8.97;;;3.10;99.90;;;;;;7388577;19;20173;-77
2023/01/26 19:12:06;;;;;;;12.10;8.37;;;3.10;99.90;;;;;;7391673;19;20654;-76
2023/01/26 19:14:32;;;;;;;13.70;8.60;;;3.10;99.90;;;;;;7388499;19;20134;-77
2023/01/26 19:17:00;;;;;;;15.93;9.30;;;3.00;99.90;;;;;;7390678;19;20234;-76
2023/01/26 19:19:28;;;;;;;14.20;8.73;;;3.10;99.90;;;;;;7390367;19;20170;-77
2023/01/26 19:21:53;;;;;;;13.53;9.13;;;3.10;99.90;;;;;;7392964;19;20157;-75
2023/01/26 19:24:19;;;;;;;15.07;9.50;;;3.10;99.90;;;;;;7386487;19;20154;-76
2023/01/26 19:26:46;;;;;;;15.87;9.50;;;3.10;99.90;;;;;;7388465;19;20170;-75
2023/01/26 19:29:15;;;;;;;14.33;10.07;;;3.10;99.90;;;;;;7381874;19;20639;-75
2023/01/26 19:31:46;;;;;;;15.10;10.67;;;3.10;99.90;;;;;;7388115;19;20531;-76
2023/01/26 19:34:15;;;;;;;15.93;9.93;;;3.20;99.90;;;;;;7386796;19;20148;-76
2023/01/26 19:36:45;;;;;;;16.40;10.30;;;3.20;99.90;;;;;;7387099;19;20169;-78
2023/01/26 19:39:12;;;;;;;15.63;10.10;;;3.30;99.90;;;;;;7385841;19;20138;-77
2023/01/26 19:41:38;;;;;;;18.97;10.47;;;3.20;99.90;;;;;;7388617;19;20650;-77
2023/01/26 19:44:07;;;;;;;17.70;10.10;;;3.00;99.90;;;;;;7386047;19;20150;-76
2023/01/26 19:46:33;;;;;;;15.80;9.20;;;3.00;99.90;;;;;;7388221;19;20155;-78
2023/01/26 19:48:59;;;;;;;14.97;9.70;;;3.00;99.90;;;;;;7391126;19;20147;-75
2023/01/26 19:51:28;;;;;;;19.80;10.50;;;2.80;99.90;;;;;;7392339;19;20151;-76
2023/01/26 19:53:56;;;;;;;14.53;9.33;;;2.70;99.90;;;;;;7390447;19;20243;-76
2023/01/26 19:56:25;;;;;;;14.33;9.80;;;2.70;99.90;;;;;;7391276;19;20560;-76
2023/01/26 19:58:59;;;;;;;16.13;9.90;;;2.80;99.90;;;;;;7387174;19;20151;-76
2023/01/26 20:01:27;;;;;;;16.40;9.93;;;2.90;99.90;;;;;;7385177;19;20666;-76
2023/01/26 20:03:57;;;;;;;15.23;9.43;;;2.90;99.90;;;;;;7388242;19;20632;-76
2023/01/26 20:06:25;;;;;;;16.20;10.87;;;2.80;99.90;;;;;;7388253;19;20138;-76
2023/01/26 20:08:54;;;;;;;16.97;10.17;;;3.00;99.90;;;;;;7393740;19;20142;-78
2023/01/26 20:11:23;;;;;;;13.23;9.40;;;3.00;99.90;;;;;;7396314;19;20517;-79
2023/01/26 20:13:57;;;;;;;14.80;9.30;;;2.90;99.90;;;;;;7393112;19;20130;-77
2023/01/26 20:16:26;;;;;;;15.17;8.87;;;2.90;99.90;;;;;;7393414;19;20651;-78
2023/01/26 20:18:53;;;;;;;13.77;8.53;;;2.80;99.90;;;;;;7393042;19;20174;-78
2023/01/26 20:21:21;;;;;;;14.27;8.37;;;2.80;99.90;;;;;;7395297;19;20680;-77
2023/01/26 20:23:47;;;;;;;14.53;8.60;;;2.70;99.90;;;;;;7394337;19;20135;-78
2023/01/26 20:26:13;;;;;;;15.43;8.93;;;2.80;99.90;;;;;;7391080;19;20130;-74
2023/01/26 20:28:39;;;;;;;14.93;9.77;;;2.80;99.90;;;;;;7384297;19;20177;-79
2023/01/26 20:31:16;;;;;;;16.37;10.63;;;2.80;99.90;;;;;;7396710;19;20158;-77
2023/01/26 20:33:46;;;;;;;17.63;9.57;;;2.90;99.90;;;;;;7393122;19;20130;-76
2023/01/26 20:36:15;;;;;;;18.07;10.17;;;2.90;99.90;;;;;;7395408;19;20141;-77
2023/01/26 20:38:43;;;;;;;17.27;10.03;;;2.90;99.90;;;;;;7392869;19;20444;-77
2023/01/26 20:41:16;;;;;;;14.17;9.30;;;2.90;99.90;;;;;;7406099;19;20131;-77
2023/01/26 20:43:43;;;;;;;18.10;9.87;;;2.90;99.90;;;;;;7395747;19;20139;-77
2023/01/26 20:46:12;;;;;;;16.70;10.30;;;2.90;99.90;;;;;;7394597;19;20631;-77
2023/01/26 20:48:38;;;;;;;14.70;9.70;;;2.90;99.90;;;;;;7395239;19;20607;-78
2023/01/26 20:51:10;;;;;;;17.77;10.00;;;2.80;99.90;;;;;;7396100;19;20143;-78
2023/01/26 20:53:35;;;;;;;18.77;10.77;;;2.70;99.90;;;;;;7395852;19;20139;-77
2023/01/26 20:56:01;;;;;;;16.47;10.47;;;2.70;99.90;;;;;;7394386;19;20137;-76
2023/01/26 20:58:27;;;;;;;16.23;10.27;;;2.70;99.90;;;;;;7393962;19;20146;-77
2023/01/26 21:00:52;;;;;;;15.87;9.50;;;2.80;99.90;;;;;;7394038;19;20143;-75
2023/01/26 21:03:18;;;;;;;18.37;9.37;;;2.80;99.90;;;;;;7397057;19;20150;-77
2023/01/26 21:05:44;;;;;;;16.87;11.13;;;2.80;99.90;;;;;;7394238;19;20148;-77
2023/01/26 21:08:10;;;;;;;16.70;10.10;;;2.80;99.90;;;;;;7390735;19;20165;-77
2023/01/26 21:10:36;;;;;;;16.27;10.13;;;2.70;99.90;;;;;;7392467;19;20140;-74
2023/01/26 21:13:02;;;;;;;16.30;10.47;;;2.70;99.90;;;;;;7393383;19;20149;-75
2023/01/26 21:15:28;;;;;;;17.40;10.87;;;2.80;99.90;;;;;;7394313;19;20206;-76
2023/01/26 21:17:54;;;;;;;15.93;10.13;;;3.00;99.90;;;;;;7395084;19;20159;-77
2023/01/26 21:20:20;;;;;;;18.17;9.97;;;3.00;99.90;;;;;;7387624;19;21079;-75
2023/01/26 21:22:45;;;;;;;15.37;10.03;;;2.90;99.90;;;;;;7391910;19;20150;-75
2023/01/26 21:25:12;;;;;;;17.80;10.23;;;2.90;99.90;;;;;;7397124;19;20211;-77
2023/01/26 21:27:41;;;;;;;17.10;9.53;;;2.90;99.90;;;;;;7393683;19;20134;-76
2023/01/26 21:30:08;;;;;;;14.80;9.00;;;2.80;99.90;;;;;;7389422;19;20184;-76
2023/01/26 21:32:34;;;;;;;15.67;10.23;;;2.80;99.90;;;;;;7389047;19;20614;-75
2023/01/26 21:34:59;;;;;;;16.50;9.57;;;2.70;99.90;;;;;;7391007;19;20150;-76
2023/01/26 21:37:26;;;;;;;15.47;9.37;;;2.80;99.90;;;;;;7394102;19;20143;-76
2023/01/26 21:39:51;;;;;;;16.10;9.73;;;2.80;99.90;;;;;;7389291;19;20138;-75
2023/01/26 21:42:18;;;;;;;17.63;10.20;;;2.80;99.90;;;;;;7389782;19;20159;-75
2023/01/26 21:47:28;;;;;;;21.43;10.13;;;2.80;99.90;;;;;;7392893;19;20143;-76
2023/01/26 21:49:55;;;;;;;15.60;9.00;;;2.80;99.90;;;;;;7393894;19;20138;-75
2023/01/26 21:55:05;;;;;;;14.43;9.23;;;2.80;99.90;;;;;;7392450;19;20163;-75
2023/01/26 22:00:15;;;;;;;14.80;9.47;;;2.80;99.90;;;;;;7391515;19;20182;-75
2023/01/26 22:02:41;;;;;;;14.57;10.00;;;2.90;99.90;;;;;;7393485;19;20159;-75
2023/01/26 22:05:07;;;;;;;16.63;9.53;;;3.00;99.90;;;;;;7394494;19;20138;-74
2023/01/26 22:07:33;;;;;;;13.83;9.13;;;2.90;99.90;;;;;;7393451;19;20143;-75
2023/01/26 22:09:59;;;;;;;15.00;8.97;;;3.00;99.90;;;;;;7389009;19;20162;-76
2023/01/26 22:12:24;;;;;;;15.33;9.67;;;3.00;99.90;;;;;;7392712;19;20130;-75
2023/01/26 22:14:51;;;;;;;15.77;9.40;;;2.90;99.90;;;;;;7392368;19;20599;-75
2023/01/26 22:17:17;;;;;;;18.10;10.53;;;3.00;99.90;;;;;;7389611;19;20218;-75
2023/01/26 22:19:42;;;;;;;15.23;9.00;;;2.90;99.90;;;;;;7390770;19;20182;-76
2023/01/26 22:22:08;;;;;;;13.00;9.33;;;3.00;99.90;;;;;;7391016;19;20631;-74
2023/01/26 22:24:34;;;;;;;16.70;10.00;;;2.90;99.90;;;;;;7387166;19;20210;-75
2023/01/26 22:27:00;;;;;;;13.57;8.43;;;2.90;99.90;;;;;;7391253;19;20591;-75
2023/01/26 22:29:26;;;;;;;18.03;10.63;;;2.80;99.90;;;;;;7390783;19;20130;-75
2023/01/26 22:31:51;;;;;;;15.43;9.37;;;2.70;99.90;;;;;;7392245;19;20150;-75
2023/01/26 22:34:17;;;;;;;14.67;9.03;;;2.90;99.90;;;;;;7387205;19;20146;-75
2023/01/26 22:36:43;;;;;;;15.83;9.47;;;2.80;99.90;;;;;;7389822;19;20497;-76
2023/01/26 22:39:08;;;;;;;14.90;9.77;;;2.70;99.90;;;;;;7388957;19;20142;-74
2023/01/26 22:41:36;;;;;;;16.13;8.67;;;2.60;99.90;;;;;;7390588;19;20138;-75
2023/01/26 22:44:02;;;;;;;14.40;8.90;;;2.70;99.90;;;;;;7388753;19;20202;-76
2023/01/26 22:46:29;;;;;;;14.60;9.80;;;2.80;99.90;;;;;;7387699;19;20142;-74
2023/01/26 22:48:56;;;;;;;15.87;9.80;;;2.80;99.90;;;;;;7389726;19;20154;-74
2023/01/26 22:51:28;;;;;;;14.83;8.90;;;2.90;99.90;;;;;;7392229;19;20731;-78
2023/01/26 22:53:55;;;;;;;15.07;9.37;;;2.90;99.90;;;;;;7390563;19;20148;-75
2023/01/26 22:56:20;;;;;;;16.67;8.97;;;2.90;99.90;;;;;;7390124;19;20130;-75
2023/01/26 22:58:52;;;;;;;18.20;9.67;;;3.00;99.90;;;;;;7389719;19;20466;-74
2023/01/26 23:01:19;;;;;;;13.83;8.63;;;2.90;99.90;;;;;;7388047;19;20151;-74
2023/01/26 23:03:45;;;;;;;15.67;9.63;;;2.80;99.90;;;;;;7389178;19;21693;-75
2023/01/26 23:06:13;;;;;;;17.30;9.80;;;2.80;99.90;;;;;;7387625;19;20239;-75
2023/01/26 23:08:40;;;;;;;15.30;9.47;;;2.70;99.90;;;;;;7388232;19;20175;-75
2023/01/26 23:11:13;;;;;;;15.00;9.40;;;2.70;99.90;;;;;;7386827;19;20137;-76
2023/01/26 23:13:41;;;;;;;17.13;9.80;;;2.70;99.90;;;;;;7390064;19;20143;-77
2023/01/26 23:16:07;;;;;;;14.00;9.23;;;2.80;99.90;;;;;;7388771;19;20126;-75
2023/01/26 23:18:33;;;;;;;16.90;10.00;;;2.80;99.90;;;;;;7391166;19;20154;-75
2023/01/26 23:20:59;;;;;;;15.63;9.80;;;2.90;99.90;;;;;;7387580;19;20155;-76
2023/01/26 23:23:26;;;;;;;15.67;8.83;;;3.00;99.90;;;;;;7389983;19;20514;-75
2023/01/26 23:25:52;;;;;;;14.77;9.23;;;3.00;99.90;;;;;;7386521;19;20130;-76
2023/01/26 23:28:20;;;;;;;15.90;9.70;;;3.10;99.90;;;;;;7388480;19;20590;-75
2023/01/26 23:30:48;;;;;;;16.50;9.70;;;3.10;99.90;;;;;;7388175;19;20134;-74
2023/01/26 23:33:18;;;;;;;19.13;11.00;;;3.20;99.90;;;;;;7387558;19;20146;-76
2023/01/26 23:35:44;;;;;;;16.33;9.53;;;3.10;99.90;;;;;;7388681;19;20123;-75
2023/01/26 23:38:10;;;;;;;15.80;10.20;;;3.10;99.90;;;;;;7388971;19;20666;-74
2023/01/26 23:40:37;;;;;;;13.90;9.47;;;3.10;99.90;;;;;;7386594;19;20138;-76
2023/01/26 23:43:03;;;;;;;16.00;9.13;;;3.10;99.90;;;;;;7396609;19;20163;-76
2023/01/26 23:45:29;;;;;;;15.80;8.83;;;3.10;99.90;;;;;;7394245;19;20134;-76
2023/01/26 23:47:55;;;;;;;14.77;8.70;;;3.10;99.90;;;;;;7395393;19;20495;-75
2023/01/26 23:50:21;;;;;;;17.03;9.37;;;3.10;99.90;;;;;;7395023;19;20520;-76
2023/01/26 23:52:46;;;;;;;14.77;9.70;;;3.10;99.90;;;;;;7396780;19;20122;-75
2023/01/26 23:55:12;;;;;;;15.07;9.27;;;3.20;99.90;;;;;;7396256;19;20626;-75
2023/01/26 23:57:38;;;;;;;14.47;9.43;;;3.20;99.90;;;;;;7396376;19;20587;-76
